Terminal Aerodrome Forecast
Issued by NWS Pittsburgh, PA

Current Version | Previous Version | Graphics & Text | Print | Product List | Glossary On
Versions: 1 2 3 4 5 6 7 8 9 10 11 12 13 14 15 16 17 18 19 20 21 22 23 24 25 26 27 28 29 30 31
000
FTUS41 KPBZ 242300
TAFPIT
TAF
KPIT 242320Z 2500/2606 21010KT P6SM OVC100
     FM250400 25012G18KT P6SM OVC025
     FM250900 25012G18KT P6SM OVC015
     FM251500 28012KT P6SM BKN025
     FM252200 VRB05KT P6SM BKN250=

USA.gov is the U.S. government's official web portal to all federal, state and local government web resources and services.